Time;durP1;ratioP1;P1;durP2;ratioP2;P2;SDS_P1;SDS_P2;PMS_P1;PMS_P2;Temp;Humidity;BMP_temperature;BMP_pressure;BME280_temperature;BME280_humidity;BME280_pressure;Samples;Min_cycle;Max_cycle;Signal;HPM_P1;HPM_P2
2023/09/16 00:01:16;;;;;;;12.65;7.82;;;;;;;;;;5053798;28;20093;-66
2023/09/16 00:03:41;;;;;;;19.48;8.40;;;;;;;;;;5053838;28;20135;-67
2023/09/16 00:06:07;;;;;;;17.75;8.50;;;;;;;;;;5053798;28;20040;-66
2023/09/16 00:08:33;;;;;;;14.43;8.25;;;;;;;;;;5070688;28;20194;-67
2023/09/16 00:11:00;;;;;;;20.38;7.82;;;;;;;;;;5053754;28;20128;-67
2023/09/16 00:13:27;;;;;;;17.73;8.30;;;;;;;;;;5070298;28;20056;-66
2023/09/16 00:15:52;;;;;;;14.95;7.63;;;;;;;;;;5070216;28;20055;-66
2023/09/16 00:18:18;;;;;;;23.50;7.95;;;;;;;;;;5053935;28;20489;-66
2023/09/16 00:20:48;;;;;;;15.65;8.25;;;;;;;;;;5054454;28;20292;-66
2023/09/16 00:23:14;;;;;;;21.77;8.23;;;;;;;;;;5055116;28;20386;-66
2023/09/16 00:25:40;;;;;;;12.88;8.18;;;;;;;;;;5053986;28;20285;-66
2023/09/16 00:28:08;;;;;;;14.05;8.52;;;;;;;;;;5070554;28;20356;-67
2023/09/16 00:30:34;;;;;;;14.98;8.23;;;;;;;;;;5071514;28;20120;-66
2023/09/16 00:33:03;;;;;;;17.13;8.93;;;;;;;;;;5037746;28;20043;-67
2023/09/16 00:35:29;;;;;;;17.05;8.77;;;;;;;;;;5070561;28;20046;-66
2023/09/16 00:37:55;;;;;;;16.48;9.13;;;;;;;;;;5073772;28;20132;-67
2023/09/16 00:40:21;;;;;;;21.98;9.90;;;;;;;;;;5074380;28;20067;-67
2023/09/16 00:42:47;;;;;;;16.02;9.68;;;;;;;;;;5073952;28;20502;-66
2023/09/16 00:45:14;;;;;;;16.25;9.75;;;;;;;;;;5057206;28;20470;-67
2023/09/16 00:47:40;;;;;;;15.13;9.48;;;;;;;;;;5073957;28;20471;-66
2023/09/16 00:50:07;;;;;;;18.85;9.70;;;;;;;;;;5057235;28;20029;-66
2023/09/16 00:52:37;;;;;;;22.23;9.35;;;;;;;;;;5057152;28;20074;-67
2023/09/16 00:55:03;;;;;;;17.90;10.38;;;;;;;;;;5057749;28;20040;-67
2023/09/16 00:57:30;;;;;;;21.42;9.20;;;;;;;;;;5057683;28;20090;-67
2023/09/16 00:59:56;;;;;;;17.25;9.27;;;;;;;;;;5057452;28;20040;-67
2023/09/16 01:02:22;;;;;;;16.25;9.50;;;;;;;;;;5057321;28;20383;-66
2023/09/16 01:04:50;;;;;;;14.75;9.82;;;;;;;;;;5057237;28;20071;-70
2023/09/16 01:07:17;;;;;;;19.50;9.00;;;;;;;;;;5073748;28;20065;-66
2023/09/16 01:09:43;;;;;;;20.85;9.00;;;;;;;;;;5073520;28;20455;-67
2023/09/16 01:12:09;;;;;;;14.95;9.23;;;;;;;;;;5073460;28;20075;-67
2023/09/16 01:14:36;;;;;;;14.55;9.23;;;;;;;;;;5073605;28;20493;-67
2023/09/16 01:17:32;;;;;;;20.20;9.70;;;;;;;;;;5056838;28;20052;-67
2023/09/16 01:20:06;;;;;;;18.20;10.10;;;;;;;;;;5052570;28;20053;-70
2023/09/16 01:22:35;;;;;;;17.42;10.45;;;;;;;;;;5035944;28;20048;-67
2023/09/16 01:25:04;;;;;;;16.15;9.23;;;;;;;;;;5052121;28;20071;-67
2023/09/16 01:27:30;;;;;;;13.43;8.35;;;;;;;;;;5035456;28;20504;-67
2023/09/16 01:29:55;;;;;;;19.33;9.07;;;;;;;;;;5041276;28;20140;-67
2023/09/16 01:32:39;;;;;;;15.98;8.23;;;;;;;;;;5039019;28;20037;-66
2023/09/16 01:35:07;;;;;;;12.77;8.25;;;;;;;;;;5039040;28;20398;-67
2023/09/16 01:37:33;;;;;;;18.95;8.77;;;;;;;;;;5039652;28;20045;-67
2023/09/16 01:39:59;;;;;;;12.35;8.50;;;;;;;;;;5039737;28;20044;-70
2023/09/16 01:42:29;;;;;;;12.90;7.90;;;;;;;;;;5039621;28;20108;-66
2023/09/16 01:44:54;;;;;;;11.55;7.60;;;;;;;;;;5055319;28;20041;-67
2023/09/16 01:47:20;;;;;;;15.02;8.23;;;;;;;;;;5055244;28;20047;-66
2023/09/16 01:49:47;;;;;;;13.75;8.13;;;;;;;;;;5021433;28;20139;-67
2023/09/16 01:52:16;;;;;;;10.18;7.65;;;;;;;;;;5022996;28;20224;-68
2023/09/16 01:54:42;;;;;;;13.20;8.40;;;;;;;;;;5057903;28;20135;-68
2023/09/16 01:57:08;;;;;;;12.98;7.47;;;;;;;;;;5075051;28;20198;-67
2023/09/16 01:59:34;;;;;;;13.18;7.90;;;;;;;;;;5072818;28;20028;-67
2023/09/16 02:02:01;;;;;;;12.77;7.43;;;;;;;;;;5073402;28;20043;-69
2023/09/16 02:04:28;;;;;;;9.73;7.15;;;;;;;;;;5056288;28;20036;-67
2023/09/16 02:06:54;;;;;;;11.13;8.05;;;;;;;;;;5075050;28;20040;-67
2023/09/16 02:09:20;;;;;;;11.15;7.80;;;;;;;;;;5076008;28;20163;-66
2023/09/16 02:11:46;;;;;;;14.35;7.88;;;;;;;;;;5056720;28;20143;-66
2023/09/16 02:14:16;;;;;;;10.50;7.85;;;;;;;;;;5072132;28;20067;-67
2023/09/16 02:16:44;;;;;;;16.42;7.35;;;;;;;;;;5055335;28;20490;-67
2023/09/16 02:19:11;;;;;;;8.75;6.97;;;;;;;;;;5073794;28;20040;-67
2023/09/16 02:21:38;;;;;;;11.07;6.95;;;;;;;;;;5074035;28;20055;-67
2023/09/16 02:24:04;;;;;;;9.32;6.85;;;;;;;;;;5040062;28;20564;-67
2023/09/16 02:26:30;;;;;;;9.48;6.65;;;;;;;;;;5055746;28;20127;-68
2023/09/16 02:28:55;;;;;;;12.20;7.78;;;;;;;;;;5071842;28;20070;-68
2023/09/16 02:31:21;;;;;;;14.40;7.60;;;;;;;;;;5071790;28;20124;-67
2023/09/16 02:33:47;;;;;;;15.02;8.50;;;;;;;;;;5054616;28;20082;-67
2023/09/16 02:36:15;;;;;;;12.25;8.48;;;;;;;;;;5054753;28;20040;-67
2023/09/16 02:38:41;;;;;;;10.05;8.23;;;;;;;;;;5072767;28;20424;-67
2023/09/16 02:41:06;;;;;;;10.80;8.98;;;;;;;;;;5073038;28;20028;-67
2023/09/16 02:43:34;;;;;;;13.38;9.25;;;;;;;;;;5055221;28;20047;-70
2023/09/16 02:46:00;;;;;;;15.23;10.90;;;;;;;;;;5054884;28;20032;-67
2023/09/16 02:48:27;;;;;;;14.95;10.70;;;;;;;;;;5055039;28;20427;-68
2023/09/16 02:50:53;;;;;;;15.57;11.30;;;;;;;;;;5038727;28;20067;-67
2023/09/16 02:53:19;;;;;;;19.38;12.05;;;;;;;;;;5055538;28;20043;-67
2023/09/16 02:55:45;;;;;;;21.88;12.85;;;;;;;;;;5055344;28;20029;-69
2023/09/16 02:58:11;;;;;;;19.13;12.00;;;;;;;;;;5055518;28;20037;-67
2023/09/16 03:00:36;;;;;;;16.40;11.90;;;;;;;;;;5054305;28;20113;-67
2023/09/16 03:03:02;;;;;;;16.23;11.75;;;;;;;;;;5072044;28;20036;-67
2023/09/16 03:05:29;;;;;;;15.15;11.43;;;;;;;;;;5071647;28;20218;-67
2023/09/16 03:07:55;;;;;;;17.85;12.15;;;;;;;;;;5055138;28;20032;-66
2023/09/16 03:10:21;;;;;;;16.50;11.75;;;;;;;;;;5054598;28;20447;-66
2023/09/16 03:12:47;;;;;;;20.13;12.77;;;;;;;;;;5070854;28;20067;-66
2023/09/16 03:15:17;;;;;;;14.68;11.90;;;;;;;;;;5039556;28;20125;-65
2023/09/16 03:17:43;;;;;;;18.52;12.25;;;;;;;;;;5054483;28;20121;-66
2023/09/16 03:20:09;;;;;;;15.68;11.40;;;;;;;;;;5071578;28;20039;-66
2023/09/16 03:22:35;;;;;;;17.83;12.05;;;;;;;;;;5054581;28;20040;-70
2023/09/16 03:25:01;;;;;;;14.50;11.25;;;;;;;;;;5056341;28;20035;-67
2023/09/16 03:27:27;;;;;;;17.30;11.13;;;;;;;;;;5057897;28;20040;-66
2023/09/16 03:29:54;;;;;;;14.93;10.93;;;;;;;;;;5054457;28;20106;-66
2023/09/16 03:32:22;;;;;;;15.77;11.57;;;;;;;;;;5071147;28;20040;-67
2023/09/16 03:34:47;;;;;;;18.20;12.02;;;;;;;;;;5070683;28;20033;-66
2023/09/16 03:37:16;;;;;;;16.77;11.52;;;;;;;;;;5071136;28;20530;-66
2023/09/16 03:39:42;;;;;;;17.25;11.80;;;;;;;;;;5054171;28;20040;-67
2023/09/16 03:42:08;;;;;;;17.63;11.98;;;;;;;;;;5054011;28;20036;-69
2023/09/16 03:44:34;;;;;;;17.65;11.77;;;;;;;;;;5071256;28;20040;-67
2023/09/16 03:47:00;;;;;;;18.48;11.88;;;;;;;;;;5070982;28;20482;-68
2023/09/16 03:49:29;;;;;;;18.38;11.43;;;;;;;;;;5070900;28;20093;-68
2023/09/16 03:51:55;;;;;;;17.13;11.43;;;;;;;;;;5071336;28;20036;-70
2023/09/16 03:54:21;;;;;;;17.50;10.88;;;;;;;;;;5055898;28;20422;-68
2023/09/16 03:56:48;;;;;;;15.38;10.00;;;;;;;;;;5070641;28;20049;-69
2023/09/16 03:59:13;;;;;;;15.07;9.25;;;;;;;;;;5087629;28;20033;-70
2023/09/16 04:01:40;;;;;;;11.55;10.15;;;;;;;;;;5054057;28;20064;-67
2023/09/16 04:04:07;;;;;;;13.32;10.00;;;;;;;;;;5037623;28;20043;-68
2023/09/16 04:06:33;;;;;;;12.80;8.88;;;;;;;;;;5070853;28;20047;-68
2023/09/16 04:09:00;;;;;;;14.52;8.57;;;;;;;;;;5053770;28;20029;-68
2023/09/16 04:11:27;;;;;;;10.68;8.07;;;;;;;;;;5071149;28;20055;-68
2023/09/16 04:13:53;;;;;;;11.32;7.43;;;;;;;;;;5073459;28;20200;-69
2023/09/16 04:16:19;;;;;;;8.25;6.35;;;;;;;;;;5071874;28;20160;-69
2023/09/16 04:18:45;;;;;;;9.00;7.05;;;;;;;;;;5073664;28;20043;-68
2023/09/16 04:21:11;;;;;;;8.85;6.13;;;;;;;;;;5073882;28;20040;-68
2023/09/16 04:23:37;;;;;;;10.40;5.90;;;;;;;;;;5074145;28;20173;-68
2023/09/16 04:26:08;;;;;;;7.22;5.18;;;;;;;;;;5058039;28;20044;-68
2023/09/16 04:28:33;;;;;;;7.57;4.90;;;;;;;;;;5074898;28;20040;-68
2023/09/16 04:30:59;;;;;;;6.15;4.80;;;;;;;;;;5058043;28;20120;-69
2023/09/16 04:33:29;;;;;;;5.22;4.30;;;;;;;;;;5074813;28;20339;-68
2023/09/16 04:35:56;;;;;;;5.97;4.30;;;;;;;;;;5057373;28;20115;-68
2023/09/16 04:38:24;;;;;;;5.80;4.20;;;;;;;;;;5077120;28;20028;-68
2023/09/16 04:40:53;;;;;;;5.55;4.18;;;;;;;;;;5094235;28;20068;-68
2023/09/16 04:43:20;;;;;;;6.25;4.45;;;;;;;;;;5077300;28;20065;-68
2023/09/16 04:45:48;;;;;;;5.50;4.15;;;;;;;;;;5094016;28;20040;-68
2023/09/16 04:48:16;;;;;;;5.50;3.70;;;;;;;;;;5077442;28;20028;-68
2023/09/16 04:50:43;;;;;;;4.03;3.13;;;;;;;;;;5060631;28;20135;-69
2023/09/16 04:53:12;;;;;;;3.95;2.90;;;;;;;;;;5077441;28;20032;-68
2023/09/16 04:55:41;;;;;;;2.63;2.42;;;;;;;;;;5077387;28;20093;-68
2023/09/16 04:58:07;;;;;;;2.72;2.50;;;;;;;;;;5094163;28;20048;-68
2023/09/16 05:00:33;;;;;;;6.30;2.25;;;;;;;;;;5093012;28;20055;-68
2023/09/16 05:03:01;;;;;;;2.85;2.17;;;;;;;;;;5092664;28;20044;-68
2023/09/16 05:05:27;;;;;;;3.83;2.03;;;;;;;;;;5059634;28;20058;-68
2023/09/16 05:07:53;;;;;;;2.85;1.90;;;;;;;;;;5076127;28;20164;-68
2023/09/16 05:10:19;;;;;;;3.28;1.70;;;;;;;;;;5059311;28;20239;-69
2023/09/16 05:12:44;;;;;;;3.13;1.67;;;;;;;;;;5058972;28;20052;-69
2023/09/16 05:15:10;;;;;;;1.70;1.60;;;;;;;;;;5059415;28;20070;-69
2023/09/16 05:17:37;;;;;;;2.92;1.63;;;;;;;;;;5059209;28;20120;-68
2023/09/16 05:20:04;;;;;;;3.08;1.50;;;;;;;;;;5058787;28;20102;-68
2023/09/16 05:22:30;;;;;;;3.05;1.50;;;;;;;;;;5075059;28;20028;-69
2023/09/16 05:25:12;;;;;;;1.50;1.40;;;;;;;;;;5058141;28;20036;-69
2023/09/16 05:27:38;;;;;;;1.95;1.60;;;;;;;;;;5059320;28;20044;-68
2023/09/16 05:30:04;;;;;;;2.97;1.15;;;;;;;;;;5075420;28;20470;-69
2023/09/16 05:32:33;;;;;;;2.40;1.20;;;;;;;;;;5091470;28;20044;-68
2023/09/16 05:35:00;;;;;;;1.42;1.05;;;;;;;;;;5076664;28;20039;-68
2023/09/16 05:37:27;;;;;;;1.20;0.90;;;;;;;;;;5093359;28;20051;-68
2023/09/16 05:39:53;;;;;;;1.45;0.80;;;;;;;;;;5076158;28;20089;-68
2023/09/16 05:42:21;;;;;;;1.85;0.95;;;;;;;;;;5093309;28;20040;-68
2023/09/16 05:44:47;;;;;;;1.05;0.80;;;;;;;;;;5076293;28;20040;-69
2023/09/16 05:47:14;;;;;;;1.55;0.75;;;;;;;;;;5110018;28;20028;-69
2023/09/16 05:49:41;;;;;;;1.58;1.05;;;;;;;;;;5076173;28;20348;-68
2023/09/16 05:52:07;;;;;;;3.15;0.88;;;;;;;;;;5092867;28;20035;-68
2023/09/16 05:54:33;;;;;;;2.17;0.70;;;;;;;;;;5075810;28;20044;-69
2023/09/16 05:57:01;;;;;;;1.05;0.80;;;;;;;;;;5092533;28;20078;-68
2023/09/16 05:59:27;;;;;;;4.22;0.70;;;;;;;;;;5093199;28;20431;-69
2023/09/16 06:01:53;;;;;;;2.55;0.70;;;;;;;;;;5091813;28;20032;-69
2023/09/16 06:04:19;;;;;;;2.50;0.60;;;;;;;;;;5092109;28;20442;-69
2023/09/16 06:06:49;;;;;;;0.90;0.68;;;;;;;;;;5072663;28;20024;-68
2023/09/16 06:09:15;;;;;;;1.20;0.73;;;;;;;;;;5092847;28;20028;-69
2023/09/16 06:11:41;;;;;;;1.45;0.73;;;;;;;;;;5092035;28;20043;-69
2023/09/16 06:14:08;;;;;;;3.17;0.93;;;;;;;;;;5075513;28;20092;-69
2023/09/16 06:16:34;;;;;;;1.42;1.00;;;;;;;;;;5092925;28;20039;-69
2023/09/16 06:19:00;;;;;;;5.88;1.02;;;;;;;;;;5094288;28;20160;-70
2023/09/16 06:21:26;;;;;;;6.15;1.17;;;;;;;;;;5094341;28;20047;-69
2023/09/16 06:23:53;;;;;;;3.00;1.20;;;;;;;;;;5073881;28;20090;-69
2023/09/16 06:26:19;;;;;;;1.20;1.00;;;;;;;;;;5084917;28;20051;-70
2023/09/16 06:28:46;;;;;;;1.40;1.30;;;;;;;;;;5091330;28;20039;-71
2023/09/16 06:31:11;;;;;;;3.78;1.50;;;;;;;;;;5087301;28;20043;-70
2023/09/16 06:33:41;;;;;;;2.13;1.85;;;;;;;;;;5106391;28;20502;-69
2023/09/16 06:36:07;;;;;;;2.88;1.77;;;;;;;;;;5090895;28;20024;-70
2023/09/16 06:38:32;;;;;;;5.47;1.50;;;;;;;;;;5057726;28;20032;-70
2023/09/16 06:40:58;;;;;;;1.40;1.30;;;;;;;;;;5090734;28;20042;-70
2023/09/16 06:43:24;;;;;;;2.53;1.05;;;;;;;;;;5089934;28;20192;-69
2023/09/16 06:45:50;;;;;;;3.85;1.35;;;;;;;;;;5071687;28;20032;-70
2023/09/16 06:48:16;;;;;;;6.15;1.33;;;;;;;;;;5089077;28;20036;-69
2023/09/16 06:50:43;;;;;;;1.70;1.00;;;;;;;;;;5106466;28;20024;-69
2023/09/16 06:53:11;;;;;;;2.78;1.17;;;;;;;;;;5090287;28;20159;-70
2023/09/16 06:55:36;;;;;;;3.95;1.02;;;;;;;;;;5090446;28;20126;-69
2023/09/16 06:58:04;;;;;;;1.95;1.05;;;;;;;;;;5073713;28;20177;-69
2023/09/16 07:00:31;;;;;;;2.03;1.20;;;;;;;;;;5091407;28;20429;-69
2023/09/16 07:02:58;;;;;;;3.55;0.95;;;;;;;;;;5075227;28;20064;-69
2023/09/16 07:05:27;;;;;;;2.63;1.08;;;;;;;;;;5091829;28;20126;-69
2023/09/16 07:07:53;;;;;;;5.47;1.10;;;;;;;;;;5092771;28;20470;-70
2023/09/16 07:10:19;;;;;;;2.42;1.08;;;;;;;;;;5075290;28;20130;-69
2023/09/16 07:12:45;;;;;;;2.88;1.30;;;;;;;;;;5094012;28;20056;-69
2023/09/16 07:15:10;;;;;;;3.83;1.20;;;;;;;;;;5077047;28;20066;-69
2023/09/16 07:17:36;;;;;;;6.57;1.35;;;;;;;;;;5058650;28;20147;-71
2023/09/16 07:20:02;;;;;;;3.00;1.30;;;;;;;;;;5091620;28;20631;-72
2023/09/16 07:22:30;;;;;;;1.65;1.10;;;;;;;;;;5090689;28;20100;-71
2023/09/16 07:24:56;;;;;;;4.80;1.20;;;;;;;;;;5007424;28;20051;-70
2023/09/16 07:27:24;;;;;;;2.90;1.15;;;;;;;;;;5056919;28;20052;-72
2023/09/16 07:29:51;;;;;;;4.15;1.20;;;;;;;;;;5024914;28;20051;-69
2023/09/16 07:32:17;;;;;;;2.97;1.20;;;;;;;;;;5057164;28;20048;-72
2023/09/16 07:34:45;;;;;;;2.40;1.10;;;;;;;;;;5056665;28;20031;-70
2023/09/16 07:37:11;;;;;;;5.38;1.30;;;;;;;;;;5073524;28;20081;-71
2023/09/16 07:39:36;;;;;;;3.20;1.30;;;;;;;;;;5039964;28;20038;-70
2023/09/16 07:42:02;;;;;;;3.97;1.23;;;;;;;;;;5056866;28;20044;-69
2023/09/16 07:44:28;;;;;;;1.45;1.20;;;;;;;;;;5073337;28;20040;-69
2023/09/16 07:46:53;;;;;;;1.10;1.00;;;;;;;;;;5058242;28;20389;-70
2023/09/16 07:49:19;;;;;;;3.38;1.00;;;;;;;;;;5077265;28;20024;-71
2023/09/16 07:51:46;;;;;;;7.10;1.30;;;;;;;;;;5077594;28;20084;-70
2023/09/16 07:54:15;;;;;;;2.78;1.00;;;;;;;;;;5095738;28;20040;-70
2023/09/16 07:56:41;;;;;;;2.13;0.90;;;;;;;;;;5078210;28;20167;-69
2023/09/16 07:59:06;;;;;;;2.25;0.93;;;;;;;;;;5095171;28;20059;-68
2023/09/16 08:01:33;;;;;;;10.27;1.05;;;;;;;;;;5096079;28;20040;-69
2023/09/16 08:03:58;;;;;;;4.18;1.02;;;;;;;;;;5078137;28;20489;-68
2023/09/16 08:06:26;;;;;;;4.88;1.17;;;;;;;;;;5094861;28;20051;-69
2023/09/16 08:08:54;;;;;;;2.20;1.10;;;;;;;;;;5096022;28;20033;-68
2023/09/16 08:11:19;;;;;;;1.88;1.15;;;;;;;;;;5095229;28;20180;-68
2023/09/16 08:13:47;;;;;;;2.83;0.80;;;;;;;;;;5077331;28;20521;-68
2023/09/16 08:16:13;;;;;;;0.88;0.88;;;;;;;;;;5094279;28;20118;-70
2023/09/16 08:18:39;;;;;;;2.00;1.00;;;;;;;;;;5094926;28;20434;-70
2023/09/16 08:21:04;;;;;;;2.38;1.00;;;;;;;;;;5075457;28;20025;-70
2023/09/16 08:23:30;;;;;;;3.28;1.27;;;;;;;;;;5095273;28;20040;-70
2023/09/16 08:25:56;;;;;;;3.22;1.17;;;;;;;;;;5078757;28;20032;-70
2023/09/16 08:28:23;;;;;;;2.40;1.00;;;;;;;;;;5095651;28;20134;-70
2023/09/16 08:30:49;;;;;;;1.92;1.15;;;;;;;;;;5094840;28;20035;-70
2023/09/16 08:33:17;;;;;;;5.03;1.10;;;;;;;;;;5077528;28;20051;-68
2023/09/16 08:35:44;;;;;;;4.18;1.00;;;;;;;;;;5077300;28;20095;-69
2023/09/16 08:38:10;;;;;;;3.10;1.17;;;;;;;;;;5094369;28;20143;-70
2023/09/16 08:40:36;;;;;;;2.15;1.00;;;;;;;;;;5060579;28;20101;-70
2023/09/16 08:43:24;;;;;;;1.85;1.10;;;;;;;;;;5077337;28;20043;-69
2023/09/16 08:46:00;;;;;;;9.75;1.67;;;;;;;;;;5095402;28;20115;-70
2023/09/16 08:48:26;;;;;;;2.45;1.40;;;;;;;;;;5094076;28;20162;-70
2023/09/16 08:50:54;;;;;;;2.85;1.02;;;;;;;;;;5094106;28;20035;-72
2023/09/16 08:53:20;;;;;;;3.63;1.42;;;;;;;;;;5095387;28;20032;-69
2023/09/16 08:55:45;;;;;;;4.30;1.58;;;;;;;;;;5095168;28;20028;-69
2023/09/16 08:58:13;;;;;;;3.50;1.38;;;;;;;;;;5092707;28;20051;-70
2023/09/16 09:00:39;;;;;;;7.30;1.10;;;;;;;;;;5059791;28;20040;-71
2023/09/16 09:03:06;;;;;;;3.40;1.10;;;;;;;;;;5077509;28;20464;-71
2023/09/16 09:05:33;;;;;;;5.60;1.40;;;;;;;;;;5093944;28;20039;-71
2023/09/16 09:08:00;;;;;;;6.93;1.60;;;;;;;;;;5060466;28;20028;-70
2023/09/16 09:10:27;;;;;;;2.53;1.60;;;;;;;;;;5093097;28;20548;-70
2023/09/16 09:12:53;;;;;;;3.80;1.60;;;;;;;;;;5059391;28;20071;-72
2023/09/16 09:15:19;;;;;;;5.35;2.28;;;;;;;;;;5076931;28;20044;-71
2023/09/16 09:17:45;;;;;;;3.50;1.50;;;;;;;;;;5059160;28;20386;-70
2023/09/16 09:20:14;;;;;;;5.35;1.35;;;;;;;;;;5059190;28;20055;-70
2023/09/16 09:22:40;;;;;;;4.43;1.45;;;;;;;;;;5092577;28;20043;-69
2023/09/16 09:25:06;;;;;;;3.35;1.35;;;;;;;;;;5092050;28;20043;-69
2023/09/16 09:27:32;;;;;;;5.40;1.70;;;;;;;;;;5092310;28;20047;-71
2023/09/16 09:29:57;;;;;;;4.95;1.42;;;;;;;;;;5075092;28;20048;-71
2023/09/16 09:32:28;;;;;;;7.25;1.42;;;;;;;;;;5092729;28;20047;-71
2023/09/16 09:34:54;;;;;;;6.13;2.60;;;;;;;;;;5092645;28;20068;-72
2023/09/16 09:37:20;;;;;;;3.60;1.65;;;;;;;;;;5059247;28;20193;-69
2023/09/16 09:39:46;;;;;;;2.40;1.40;;;;;;;;;;5039662;28;20565;-70
2023/09/16 09:42:21;;;;;;;7.22;1.75;;;;;;;;;;5091169;28;20386;-69
2023/09/16 09:44:47;;;;;;;8.80;1.90;;;;;;;;;;5075583;28;20061;-70
2023/09/16 09:47:15;;;;;;;6.80;1.45;;;;;;;;;;5093722;28;20120;-70
2023/09/16 09:49:42;;;;;;;4.60;1.30;;;;;;;;;;5093107;28;20024;-70
2023/09/16 09:52:09;;;;;;;7.07;1.73;;;;;;;;;;5075991;28;20056;-70
2023/09/16 09:54:35;;;;;;;3.45;1.50;;;;;;;;;;5093788;28;20481;-70
2023/09/16 09:57:03;;;;;;;6.72;2.33;;;;;;;;;;5077127;28;20040;-69
2023/09/16 09:59:29;;;;;;;6.10;2.15;;;;;;;;;;5092872;28;20051;-70
2023/09/16 10:01:55;;;;;;;3.03;1.27;;;;;;;;;;5094088;28;20370;-71
2023/09/16 10:04:22;;;;;;;4.50;1.30;;;;;;;;;;5075444;28;20136;-71
2023/09/16 10:06:49;;;;;;;10.25;1.38;;;;;;;;;;5089755;28;20039;-70
2023/09/16 10:09:14;;;;;;;3.78;1.60;;;;;;;;;;5074859;28;20042;-70
2023/09/16 10:11:40;;;;;;;6.68;1.65;;;;;;;;;;5057754;28;20033;-71
2023/09/16 10:14:07;;;;;;;2.70;1.08;;;;;;;;;;5053907;28;20470;-71
2023/09/16 10:16:33;;;;;;;5.25;0.98;;;;;;;;;;5037701;28;20045;-70
2023/09/16 10:18:59;;;;;;;7.50;1.40;;;;;;;;;;5036904;28;20045;-70
2023/09/16 10:21:25;;;;;;;4.35;1.20;;;;;;;;;;5045931;28;20059;-70
2023/09/16 10:23:51;;;;;;;10.27;1.50;;;;;;;;;;5054082;28;20522;-70
2023/09/16 10:26:17;;;;;;;6.00;1.90;;;;;;;;;;5035951;28;20032;-70
2023/09/16 10:28:43;;;;;;;3.90;1.50;;;;;;;;;;5070957;28;20040;-70
2023/09/16 10:31:16;;;;;;;3.58;1.30;;;;;;;;;;5050445;28;20512;-70
2023/09/16 10:33:42;;;;;;;5.95;1.20;;;;;;;;;;5037302;28;20040;-70
2023/09/16 10:36:09;;;;;;;4.53;1.20;;;;;;;;;;5037734;28;20198;-70
2023/09/16 10:38:37;;;;;;;6.65;1.40;;;;;;;;;;5054106;28;20130;-70
2023/09/16 10:41:04;;;;;;;6.15;1.27;;;;;;;;;;5054657;28;20025;-71
2023/09/16 10:43:30;;;;;;;4.75;1.52;;;;;;;;;;5052190;28;20032;-71
2023/09/16 10:45:56;;;;;;;4.68;1.42;;;;;;;;;;5072101;28;20055;-70
2023/09/16 10:48:22;;;;;;;4.35;1.23;;;;;;;;;;5075198;28;20387;-70
2023/09/16 10:50:49;;;;;;;3.28;1.13;;;;;;;;;;5075081;28;20116;-68
2023/09/16 10:53:18;;;;;;;3.38;1.23;;;;;;;;;;5093027;28;20478;-70
2023/09/16 10:55:47;;;;;;;3.08;1.50;;;;;;;;;;5091787;28;20032;-70
2023/09/16 10:58:28;;;;;;;5.68;1.50;;;;;;;;;;5092596;28;20040;-71
2023/09/16 11:00:56;;;;;;;4.45;1.60;;;;;;;;;;5091932;28;20137;-70
2023/09/16 11:03:28;;;;;;;3.25;1.73;;;;;;;;;;5093066;28;20462;-70
2023/09/16 11:05:57;;;;;;;7.95;1.52;;;;;;;;;;5092069;28;20040;-70
2023/09/16 11:08:23;;;;;;;4.47;1.50;;;;;;;;;;5058514;28;20040;-70
2023/09/16 11:10:49;;;;;;;2.97;1.70;;;;;;;;;;5092049;28;20093;-70
2023/09/16 11:13:15;;;;;;;5.93;1.70;;;;;;;;;;5091367;28;20059;-70
2023/09/16 11:15:41;;;;;;;4.38;1.70;;;;;;;;;;5091755;28;20541;-70
2023/09/16 11:18:12;;;;;;;4.15;1.45;;;;;;;;;;5091819;28;20048;-70
2023/09/16 11:20:40;;;;;;;2.22;1.70;;;;;;;;;;5057428;28;20032;-70
2023/09/16 11:23:07;;;;;;;4.68;1.80;;;;;;;;;;5092309;28;20064;-70
2023/09/16 11:25:33;;;;;;;6.78;2.55;;;;;;;;;;5092742;28;20047;-70
2023/09/16 11:28:00;;;;;;;5.10;2.00;;;;;;;;;;5091494;28;20036;-70
2023/09/16 11:30:25;;;;;;;13.43;3.15;;;;;;;;;;5091445;28;20051;-70
2023/09/16 11:32:54;;;;;;;8.40;2.95;;;;;;;;;;5091544;28;20028;-70
2023/09/16 11:35:20;;;;;;;4.97;2.30;;;;;;;;;;5074893;28;20071;-70
2023/09/16 11:37:46;;;;;;;2.50;1.60;;;;;;;;;;5057767;28;20097;-70
2023/09/16 11:40:13;;;;;;;7.38;1.80;;;;;;;;;;5092220;28;20032;-70
2023/09/16 11:42:39;;;;;;;4.38;2.00;;;;;;;;;;5074535;28;20148;-70
2023/09/16 11:45:05;;;;;;;7.35;2.13;;;;;;;;;;5091423;28;20417;-70
2023/09/16 11:47:32;;;;;;;7.95;2.42;;;;;;;;;;5091277;28;20272;-69
2023/09/16 11:49:58;;;;;;;4.90;2.25;;;;;;;;;;5090990;28;20051;-69
2023/09/16 11:52:24;;;;;;;5.25;1.77;;;;;;;;;;5074493;28;20093;-68
2023/09/16 11:54:51;;;;;;;6.95;1.90;;;;;;;;;;5074405;28;20424;-68
2023/09/16 11:57:16;;;;;;;16.10;2.08;;;;;;;;;;5074245;28;20108;-69
2023/09/16 11:59:42;;;;;;;7.07;1.73;;;;;;;;;;5091039;28;20184;-69
2023/09/16 12:02:08;;;;;;;8.88;1.80;;;;;;;;;;5091513;28;20028;-69
2023/09/16 12:04:36;;;;;;;5.05;1.50;;;;;;;;;;5091893;28;20033;-68
2023/09/16 12:07:02;;;;;;;9.88;1.60;;;;;;;;;;5091764;28;20060;-70
2023/09/16 12:09:28;;;;;;;14.27;2.70;;;;;;;;;;5057437;28;20032;-67
2023/09/16 12:11:54;;;;;;;3.35;1.60;;;;;;;;;;5107788;28;20040;-70
2023/09/16 12:14:21;;;;;;;5.03;2.22;;;;;;;;;;5073613;28;20405;-69
2023/09/16 12:16:46;;;;;;;6.13;2.33;;;;;;;;;;5056663;28;20131;-69
2023/09/16 12:19:14;;;;;;;7.90;2.22;;;;;;;;;;5090493;28;20024;-69
2023/09/16 12:21:47;;;;;;;7.43;2.00;;;;;;;;;;5091407;28;20040;-68
2023/09/16 12:24:17;;;;;;;6.20;2.00;;;;;;;;;;5090950;28;20072;-70
2023/09/16 12:26:44;;;;;;;4.22;2.38;;;;;;;;;;5053150;28;20454;-69
2023/09/16 12:29:10;;;;;;;6.55;2.40;;;;;;;;;;5052868;28;20078;-69
2023/09/16 12:31:35;;;;;;;3.80;1.52;;;;;;;;;;5053127;28;20181;-69
2023/09/16 12:34:01;;;;;;;4.80;1.70;;;;;;;;;;5056928;28;20043;-69
2023/09/16 12:36:28;;;;;;;9.48;2.00;;;;;;;;;;5040320;28;20044;-67
2023/09/16 12:39:04;;;;;;;8.70;2.30;;;;;;;;;;5040428;28;20025;-68
2023/09/16 12:41:30;;;;;;;4.68;2.20;;;;;;;;;;5074062;28;20052;-69
2023/09/16 12:43:56;;;;;;;9.10;3.35;;;;;;;;;;5041019;28;20525;-69
2023/09/16 12:46:23;;;;;;;6.13;2.53;;;;;;;;;;5040773;28;20098;-69
2023/09/16 12:48:50;;;;;;;10.02;2.25;;;;;;;;;;5057588;28;20042;-69
2023/09/16 12:51:19;;;;;;;4.68;1.90;;;;;;;;;;5056621;28;20036;-69
2023/09/16 12:53:47;;;;;;;6.05;2.05;;;;;;;;;;5019841;28;20028;-68
2023/09/16 12:56:19;;;;;;;3.17;2.00;;;;;;;;;;5038860;28;20024;-68
2023/09/16 12:58:47;;;;;;;3.60;1.77;;;;;;;;;;5075357;28;20048;-69
2023/09/16 13:01:20;;;;;;;3.90;1.77;;;;;;;;;;5075800;28;20047;-68
2023/09/16 13:03:46;;;;;;;7.35;2.10;;;;;;;;;;5058978;28;20041;-69
2023/09/16 13:06:12;;;;;;;6.85;1.80;;;;;;;;;;5075801;28;20043;-68
2023/09/16 13:08:38;;;;;;;7.70;1.80;;;;;;;;;;5076355;28;20119;-69
2023/09/16 13:11:04;;;;;;;7.55;2.83;;;;;;;;;;5076059;28;20062;-68
2023/09/16 13:13:31;;;;;;;6.32;3.30;;;;;;;;;;5092346;28;20060;-68
2023/09/16 13:16:00;;;;;;;7.53;2.80;;;;;;;;;;5075656;28;20043;-68
2023/09/16 13:18:25;;;;;;;6.25;2.67;;;;;;;;;;5072853;28;20055;-68
2023/09/16 13:20:53;;;;;;;9.05;2.90;;;;;;;;;;5095105;28;20024;-69
2023/09/16 13:23:24;;;;;;;9.55;3.60;;;;;;;;;;5095195;28;20094;-68
2023/09/16 13:25:52;;;;;;;11.18;5.80;;;;;;;;;;5094107;28;20047;-68
2023/09/16 13:28:18;;;;;;;4.80;3.50;;;;;;;;;;5095423;28;20054;-68
2023/09/16 13:30:48;;;;;;;7.90;2.75;;;;;;;;;;5095914;28;20352;-68
2023/09/16 13:33:14;;;;;;;10.43;2.58;;;;;;;;;;5095888;28;20486;-69
2023/09/16 13:35:43;;;;;;;7.90;2.08;;;;;;;;;;5094898;28;20093;-69
2023/09/16 13:38:09;;;;;;;7.82;2.03;;;;;;;;;;5077535;28;20426;-69
2023/09/16 13:40:35;;;;;;;11.00;3.55;;;;;;;;;;5077829;28;20132;-69
2023/09/16 13:43:01;;;;;;;17.75;5.28;;;;;;;;;;5094182;28;20028;-68
2023/09/16 13:45:27;;;;;;;10.13;4.03;;;;;;;;;;5094483;28;20043;-68
2023/09/16 13:48:21;;;;;;;15.50;4.18;;;;;;;;;;5094568;28;20105;-68
2023/09/16 13:50:48;;;;;;;11.27;3.78;;;;;;;;;;5091358;28;20071;-68
2023/09/16 13:53:18;;;;;;;11.07;3.28;;;;;;;;;;5093277;28;20067;-68
2023/09/16 13:55:44;;;;;;;;;;;;;;;;;;5094396;28;20056;-68
2023/09/16 13:58:10;;;;;;;9.30;3.30;;;;;;;;;;5092999;28;19955;-68
2023/09/16 14:00:36;;;;;;;11.27;4.38;;;;;;;;;;5094415;28;20064;-68
2023/09/16 14:03:03;;;;;;;17.83;5.60;;;;;;;;;;5093413;28;20180;-68
2023/09/16 14:05:29;;;;;;;15.48;7.65;;;;;;;;;;5093438;28;20079;-69
2023/09/16 14:07:55;;;;;;;73.72;37.05;;;;;;;;;;5094950;28;20132;-68
2023/09/16 14:10:24;;;;;;;21.13;8.10;;;;;;;;;;5094701;28;20793;-67
2023/09/16 14:12:51;;;;;;;16.33;7.68;;;;;;;;;;5077690;28;20464;-68
2023/09/16 14:15:17;;;;;;;16.50;6.05;;;;;;;;;;5077570;28;20061;-69
2023/09/16 14:17:43;;;;;;;11.50;3.63;;;;;;;;;;5075672;28;20135;-68
2023/09/16 14:20:09;;;;;;;8.52;2.75;;;;;;;;;;5092763;28;20036;-69
2023/09/16 14:22:35;;;;;;;11.27;2.72;;;;;;;;;;5092871;28;20034;-67
2023/09/16 14:25:01;;;;;;;8.20;2.10;;;;;;;;;;5092186;28;20034;-67
2023/09/16 14:27:27;;;;;;;5.25;2.22;;;;;;;;;;5092154;28;20436;-66
2023/09/16 14:29:53;;;;;;;4.75;2.10;;;;;;;;;;5093389;28;20078;-66
2023/09/16 14:32:18;;;;;;;3.22;1.70;;;;;;;;;;5092292;28;20385;-68
2023/09/16 14:34:44;;;;;;;4.18;2.20;;;;;;;;;;5075624;28;20050;-67
2023/09/16 14:37:10;;;;;;;10.30;2.78;;;;;;;;;;5075566;28;20493;-68